Time;durP1;ratioP1;P1;durP2;ratioP2;P2;SDS_P1;SDS_P2;PMS_P1;PMS_P2;Temp;Humidity;BMP_temperature;BMP_pressure;BME280_temperature;BME280_humidity;BME280_pressure;Samples;Min_cycle;Max_cycle;Signal;HPM_P1;HPM_P2
2021/04/07 00:02:12;;;;;;;7.50;3.20;;;;;;;20.17;14.61;97039.63;5080911;28;20036;-91
2021/04/07 00:04:38;;;;;;;4.88;2.53;;;;;;;20.47;14.34;97042.13;5085319;28;20089;-90
2021/04/07 00:07:05;;;;;;;7.40;3.60;;;;;;;20.62;14.31;97037.78;5083225;28;20414;-91
2021/04/07 00:09:31;;;;;;;4.72;2.88;;;;;;;20.73;14.13;97034.72;5080974;28;20036;-90
2021/04/07 00:11:57;;;;;;;5.88;2.55;;;;;;;20.72;14.03;97035.97;5080063;28;20114;-90
2021/04/07 00:14:24;;;;;;;4.32;2.33;;;;;;;20.72;14.01;97035.97;5062325;28;20080;-91
2021/04/07 00:16:50;;;;;;;6.30;2.55;;;;;;;20.72;14.59;97041.53;5063437;28;20033;-90
2021/04/07 00:19:17;;;;;;;7.00;2.42;;;;;;;20.54;14.96;97046.75;5061777;28;20032;-89
2021/04/07 00:21:43;;;;;;;6.80;2.55;;;;;;;20.45;15.19;97044.56;5059337;28;20041;-90
2021/04/07 00:24:09;;;;;;;6.57;3.25;;;;;;;20.21;14.94;97039.56;5058055;28;20055;-91
2021/04/07 00:26:36;;;;;;;4.63;2.33;;;;;;;19.88;14.76;97045.03;5066481;28;20028;-90
2021/04/07 00:29:03;;;;;;;8.18;2.85;;;;;;;19.81;15.07;97047.19;5063740;28;20033;-90
2021/04/07 00:31:29;;;;;;;12.48;4.53;;;;;;;19.80;15.11;97042.84;5062006;28;20028;-90
2021/04/07 00:33:55;;;;;;;8.05;2.47;;;;;;;19.80;15.26;97043.63;5061616;28;20069;-91
2021/04/07 00:36:21;;;;;;;8.27;3.25;;;;;;;20.07;15.34;97048.22;5060860;28;20032;-90
2021/04/07 00:38:47;;;;;;;4.32;2.22;;;;;;;20.13;15.19;97052.84;5062276;28;20040;-90
2021/04/07 00:41:13;;;;;;;8.07;2.92;;;;;;;20.30;15.22;97046.13;5060515;28;20090;-90
2021/04/07 00:43:40;;;;;;;7.63;3.55;;;;;;;20.06;14.72;97053.00;5061857;28;20139;-90
2021/04/07 00:46:06;;;;;;;8.13;3.45;;;;;;;19.88;14.95;97041.47;5059593;28;20043;-90
2021/04/07 00:48:33;;;;;;;7.32;2.60;;;;;;;19.80;15.57;97049.19;5063468;28;20032;-90
2021/04/07 00:50:59;;;;;;;6.38;2.20;;;;;;;19.86;15.42;97043.91;5059135;28;20036;-91
2021/04/07 00:53:26;;;;;;;8.20;3.58;;;;;;;19.85;15.35;97048.69;5061812;28;20036;-90
2021/04/07 00:55:52;;;;;;;5.15;2.40;;;;;;;19.83;15.20;97051.13;5062256;28;20480;-90
2021/04/07 00:58:18;;;;;;;8.13;3.50;;;;;;;19.82;15.75;97051.53;5061757;28;20039;-90
2021/04/07 01:00:45;;;;;;;9.15;4.00;;;;;;;19.52;15.48;97060.13;5062938;28;20119;-90
2021/04/07 01:03:15;;;;;;;5.15;3.03;;;;;;;19.36;15.67;97049.72;5062203;28;20116;-90
2021/04/07 01:05:41;;;;;;;7.53;3.13;;;;;;;19.54;15.62;97046.56;5063095;28;20072;-90
2021/04/07 01:08:07;;;;;;;6.25;2.75;;;;;;;19.82;15.39;97055.13;5057423;28;20021;-90
2021/04/07 01:10:34;;;;;;;7.65;3.13;;;;;;;20.08;15.33;97060.94;5061539;28;20036;-90
2021/04/07 01:13:00;;;;;;;6.72;2.75;;;;;;;19.85;14.93;97057.06;5061785;28;20029;-90
2021/04/07 01:15:27;;;;;;;6.85;3.03;;;;;;;20.04;14.79;97063.03;5076293;28;20041;-90
2021/04/07 01:17:57;;;;;;;5.50;2.75;;;;;;;20.20;14.74;97063.06;5081396;28;20103;-90
2021/04/07 01:20:24;;;;;;;8.20;3.95;;;;;;;20.08;14.56;97069.28;5070082;28;20438;-90
2021/04/07 01:22:59;;;;;;;7.93;2.75;;;;;;;19.51;14.94;97070.47;5084132;28;20127;-90
2021/04/07 01:25:25;;;;;;;7.57;3.45;;;;;;;19.53;14.91;97073.63;5083315;28;20115;-90
2021/04/07 01:27:53;;;;;;;4.78;2.35;;;;;;;19.42;15.27;97073.03;5069015;28;20396;-89
2021/04/07 01:30:20;;;;;;;5.05;3.00;;;;;;;19.57;15.44;97081.91;5086610;28;20036;-91
2021/04/07 01:32:46;;;;;;;4.95;2.65;;;;;;;19.80;15.48;97079.03;5082155;28;22017;-90
2021/04/07 01:35:14;;;;;;;5.53;2.85;;;;;;;20.06;15.21;97075.31;5084408;28;20030;-90
2021/04/07 01:37:40;;;;;;;6.45;2.72;;;;;;;20.17;14.73;97078.63;5066856;28;20016;-91
2021/04/07 01:40:15;;;;;;;7.22;3.22;;;;;;;20.02;14.66;97072.59;5085118;28;20032;-90
2021/04/07 01:42:46;;;;;;;8.68;3.25;;;;;;;19.99;14.49;97084.63;5070350;28;20032;-91
2021/04/07 01:45:13;;;;;;;8.57;2.42;;;;;;;19.83;14.54;97089.34;5085781;28;20446;-90
2021/04/07 01:47:39;;;;;;;4.43;2.42;;;;;;;19.86;14.90;97088.50;5086295;28;20074;-90
2021/04/07 01:50:07;;;;;;;5.35;2.00;;;;;;;19.93;15.10;97091.88;5085868;28;20111;-90
2021/04/07 01:52:33;;;;;;;6.25;2.53;;;;;;;19.88;15.10;97083.25;5079492;28;20431;-90
2021/04/07 01:55:00;;;;;;;6.47;2.83;;;;;;;19.63;15.27;97091.31;5085170;28;20047;-90
2021/04/07 01:57:26;;;;;;;3.78;2.15;;;;;;;19.38;15.43;97097.38;5083514;28;20098;-90
2021/04/07 01:59:52;;;;;;;3.92;2.15;;;;;;;19.43;15.40;97093.31;5084249;28;20099;-90
2021/04/07 02:02:19;;;;;;;3.47;2.22;;;;;;;19.36;15.63;97093.44;5083883;28;20050;-90
2021/04/07 02:04:45;;;;;;;7.00;2.75;;;;;;;19.33;15.51;97093.06;5084494;28;20116;-90
2021/04/07 02:07:14;;;;;;;8.07;2.92;;;;;;;19.47;15.41;97092.03;5068403;28;20384;-90
2021/04/07 02:09:41;;;;;;;3.88;2.25;;;;;;;19.54;15.29;97094.69;5083818;28;20093;-90
2021/04/07 02:12:08;;;;;;;5.93;3.28;;;;;;;19.51;15.44;97092.75;5069564;28;20563;-91
2021/04/07 02:14:35;;;;;;;6.38;3.28;;;;;;;19.49;15.55;97092.38;5079929;28;20072;-90
2021/04/07 02:17:03;;;;;;;5.38;2.88;;;;;;;19.72;15.15;97099.91;5085595;28;20032;-90
2021/04/07 02:19:31;;;;;;;5.00;3.17;;;;;;;20.02;15.13;97093.31;5082292;28;20067;-90
2021/04/07 02:22:18;;;;;;;5.85;3.10;;;;;;;20.17;15.01;97091.78;5081492;28;20028;-90
2021/04/07 02:24:47;;;;;;;5.18;2.42;;;;;;;20.14;15.11;97095.44;5087590;28;20031;-90
2021/04/07 02:27:24;;;;;;;5.00;3.42;;;;;;;20.33;14.77;97089.06;5072502;28;20054;-90
2021/04/07 02:29:53;;;;;;;6.50;3.20;;;;;;;20.67;14.43;97095.84;5085707;28;20025;-90
2021/04/07 02:32:21;;;;;;;4.65;2.67;;;;;;;20.95;14.21;97088.00;5079059;28;20047;-90
2021/04/07 02:34:48;;;;;;;6.88;4.10;;;;;;;21.12;14.09;97098.72;5085385;28;20032;-90
2021/04/07 02:37:15;;;;;;;8.63;3.80;;;;;;;21.11;14.08;97086.00;5081402;28;20031;-90
2021/04/07 02:39:43;;;;;;;5.07;3.15;;;;;;;21.15;13.74;97088.69;5064319;28;20036;-91
2021/04/07 02:42:10;;;;;;;4.47;2.45;;;;;;;21.07;14.04;97096.47;5085768;28;20395;-90
2021/04/07 02:44:38;;;;;;;6.45;3.38;;;;;;;20.87;13.87;97092.16;5082386;28;20044;-90
2021/04/07 02:47:05;;;;;;;8.52;3.65;;;;;;;20.41;14.29;97098.84;5083702;28;20415;-91
2021/04/07 02:49:32;;;;;;;5.45;3.00;;;;;;;19.92;14.98;97101.47;5083827;28;20089;-91
2021/04/07 02:51:58;;;;;;;4.75;2.85;;;;;;;19.49;15.26;97105.50;5080764;28;20047;-91
2021/04/07 02:54:24;;;;;;;4.82;2.60;;;;;;;19.49;15.13;97102.72;5085317;28;20039;-91
2021/04/07 02:56:50;;;;;;;6.47;2.80;;;;;;;19.55;14.72;97101.84;5082411;28;20036;-91
2021/04/07 02:59:17;;;;;;;7.28;2.65;;;;;;;19.93;14.37;97103.03;5067455;28;20027;-91
2021/04/07 03:01:43;;;;;;;5.50;2.85;;;;;;;20.20;14.37;97108.44;5082327;28;20048;-92
2021/04/07 03:04:09;;;;;;;4.95;2.42;;;;;;;20.10;14.78;97109.44;5085280;28;20457;-92
2021/04/07 03:06:35;;;;;;;5.07;2.33;;;;;;;20.08;14.90;97111.09;5068851;28;20063;-91
2021/04/07 03:09:02;;;;;;;4.05;2.47;;;;;;;20.02;14.99;97107.25;5084424;28;20113;-91
2021/04/07 03:11:29;;;;;;;6.72;2.53;;;;;;;19.84;14.79;97116.75;5082519;28;20046;-91
2021/04/07 03:13:55;;;;;;;7.38;3.10;;;;;;;19.85;14.85;97114.75;5080067;28;20136;-92
2021/04/07 03:16:22;;;;;;;4.30;2.42;;;;;;;19.96;14.73;97118.91;5081752;28;20028;-91
2021/04/07 03:18:48;;;;;;;7.22;3.17;;;;;;;20.06;14.63;97110.75;5085265;28;20075;-91
2021/04/07 03:21:14;;;;;;;10.98;4.75;;;;;;;20.07;14.65;97120.69;5068883;28;20491;-91
2021/04/07 03:23:40;;;;;;;10.18;4.18;;;;;;;20.21;14.39;97125.97;5082828;28;20033;-91
2021/04/07 03:26:06;;;;;;;8.20;3.95;;;;;;;20.36;14.10;97118.88;5086143;28;21200;-91
2021/04/07 03:28:33;;;;;;;7.13;3.63;;;;;;;20.51;14.08;97120.13;5083564;28;20032;-91
2021/04/07 03:30:59;;;;;;;4.63;2.75;;;;;;;20.71;14.24;97117.25;5076796;28;20051;-91
2021/04/07 03:33:31;;;;;;;7.20;4.05;;;;;;;20.94;14.18;97125.47;5082790;28;20017;-91
2021/04/07 03:35:59;;;;;;;5.82;2.88;;;;;;;21.02;14.10;97116.50;5083375;28;20032;-91
2021/04/07 03:38:25;;;;;;;6.30;2.58;;;;;;;21.15;14.20;97125.75;5081745;28;20032;-91
2021/04/07 03:40:53;;;;;;;4.95;2.47;;;;;;;21.14;13.89;97117.84;5083950;28;20040;-91
2021/04/07 03:43:21;;;;;;;5.05;2.55;;;;;;;21.25;14.07;97130.31;5083384;28;20143;-91
2021/04/07 03:45:57;;;;;;;5.57;2.70;;;;;;;21.26;13.80;97131.84;5079774;28;20028;-91
2021/04/07 03:48:27;;;;;;;5.32;2.78;;;;;;;21.35;13.53;97131.25;5082171;28;20036;-91
2021/04/07 03:50:54;;;;;;;6.32;2.90;;;;;;;21.25;13.56;97133.09;5082547;28;20028;-91
2021/04/07 03:53:21;;;;;;;5.38;2.33;;;;;;;21.03;14.12;97147.97;5083606;28;20055;-91
2021/04/07 03:55:50;;;;;;;3.72;2.30;;;;;;;20.84;14.02;97141.25;5066699;28;20029;-91
2021/04/07 03:58:17;;;;;;;7.30;3.67;;;;;;;20.93;13.93;97147.03;5080364;28;20472;-92
2021/04/07 04:00:43;;;;;;;4.80;2.40;;;;;;;20.76;14.35;97150.22;5061691;28;20037;-92
2021/04/07 04:03:10;;;;;;;3.42;2.03;;;;;;;20.72;14.29;97157.91;5084960;28;20032;-92
2021/04/07 04:05:36;;;;;;;3.85;2.00;;;;;;;20.57;14.45;97157.44;5068163;28;20032;-91
2021/04/07 04:08:03;;;;;;;2.78;1.75;;;;;;;20.57;14.60;97160.22;5082791;28;20119;-92
2021/04/07 04:10:29;;;;;;;3.88;2.38;;;;;;;20.58;14.27;97161.81;5082352;28;20036;-91
2021/04/07 04:12:55;;;;;;;2.95;2.25;;;;;;;20.47;14.31;97161.22;5083582;28;20055;-91
2021/04/07 04:15:22;;;;;;;4.38;2.28;;;;;;;20.52;14.22;97160.72;5075041;28;20074;-90
2021/04/07 04:17:52;;;;;;;5.97;2.90;;;;;;;20.61;14.25;97169.28;5089038;28;20080;-91
2021/04/07 04:20:18;;;;;;;5.78;2.33;;;;;;;20.72;13.94;97160.69;5068719;28;20083;-92
2021/04/07 04:22:45;;;;;;;6.13;3.05;;;;;;;20.77;13.79;97165.75;5063730;28;20082;-91
2021/04/07 04:25:19;;;;;;;4.55;2.38;;;;;;;20.52;14.10;97171.88;5059635;28;20029;-91
2021/04/07 04:27:46;;;;;;;4.50;2.35;;;;;;;20.58;14.14;97178.53;5061921;28;20051;-91
2021/04/07 04:30:15;;;;;;;6.93;2.75;;;;;;;20.68;14.05;97172.69;5063821;28;20041;-91
2021/04/07 04:32:41;;;;;;;6.05;2.20;;;;;;;20.64;14.29;97185.94;5058557;28;20495;-91
2021/04/07 04:35:09;;;;;;;3.63;1.95;;;;;;;20.52;14.13;97178.25;5063367;28;20033;-91
2021/04/07 04:37:36;;;;;;;3.60;1.75;;;;;;;20.76;14.05;97190.06;5060194;28;20061;-94
2021/04/07 04:40:03;;;;;;;4.57;2.00;;;;;;;20.90;14.08;97188.94;5069753;28;20079;-90
2021/04/07 04:42:29;;;;;;;4.65;2.55;;;;;;;20.95;14.31;97197.59;5058424;28;20075;-89
2021/04/07 04:44:56;;;;;;;4.38;2.50;;;;;;;20.95;14.42;97196.81;5066656;28;20036;-88
2021/04/07 04:47:22;;;;;;;3.80;2.00;;;;;;;21.04;14.52;97203.41;5061054;28;20550;-88
2021/04/07 04:49:49;;;;;;;3.67;2.65;;;;;;;21.05;14.63;97206.97;5064739;28;20025;-88
2021/04/07 04:52:15;;;;;;;4.03;2.55;;;;;;;20.94;14.91;97204.41;5072522;28;20028;-90
2021/04/07 04:54:41;;;;;;;5.82;2.63;;;;;;;20.86;15.10;97208.59;5068918;28;20541;-88
2021/04/07 04:57:07;;;;;;;3.55;2.33;;;;;;;20.75;15.57;97210.03;5071132;28;20396;-88
2021/04/07 04:59:33;;;;;;;3.10;1.95;;;;;;;20.75;15.50;97207.25;5049240;28;20089;-89
2021/04/07 05:02:00;;;;;;;4.30;2.60;;;;;;;20.84;15.42;97210.22;5066770;28;20043;-88
2021/04/07 05:04:26;;;;;;;3.38;2.25;;;;;;;21.25;15.44;97210.47;5066282;28;20056;-88
2021/04/07 05:06:52;;;;;;;4.45;2.60;;;;;;;21.29;15.43;97211.94;5071000;28;20107;-87
2021/04/07 05:09:18;;;;;;;5.80;3.17;;;;;;;21.55;15.21;97210.09;5068652;28;20044;-87
2021/04/07 05:11:44;;;;;;;4.97;2.88;;;;;;;21.66;15.30;97210.63;5048867;28;20416;-88
2021/04/07 05:14:10;;;;;;;6.55;3.20;;;;;;;21.78;14.89;97212.69;5059699;28;20044;-88
2021/04/07 05:16:37;;;;;;;5.95;3.03;;;;;;;21.89;14.95;97215.25;5063973;28;20075;-89
2021/04/07 05:19:03;;;;;;;5.20;3.35;;;;;;;22.17;14.68;97216.47;5065971;28;20107;-89
2021/04/07 05:21:29;;;;;;;6.05;3.25;;;;;;;22.57;14.71;97218.47;5064666;28;20040;-87
2021/04/07 05:23:55;;;;;;;9.82;5.32;;;;;;;22.85;14.63;97216.09;5068772;28;20025;-88
2021/04/07 05:26:21;;;;;;;7.47;3.75;;;;;;;23.06;14.39;97221.81;5072741;28;20710;-90
2021/04/07 05:28:48;;;;;;;8.35;4.93;;;;;;;23.27;14.44;97223.16;5063356;28;20031;-89
2021/04/07 05:31:15;;;;;;;6.70;3.88;;;;;;;23.42;14.51;97220.69;5048121;28;20367;-92
2021/04/07 05:33:43;;;;;;;9.65;4.88;;;;;;;23.59;13.97;97224.94;5052408;28;20534;-93
2021/04/07 05:36:12;;;;;;;7.78;3.95;;;;;;;23.64;13.90;97229.97;5066122;28;20070;-90
2021/04/07 05:38:38;;;;;;;13.18;5.75;;;;;;;23.25;14.36;97229.22;5046715;28;20103;-90
2021/04/07 05:41:06;;;;;;;9.65;4.75;;;;;;;23.24;14.63;97233.22;5070333;28;20036;-90
2021/04/07 05:43:35;;;;;;;13.18;5.75;;;;;;;23.29;14.60;97235.47;5072275;28;20492;-90
2021/04/07 05:46:01;;;;;;;14.40;6.68;;;;;;;23.34;14.74;97232.13;5069433;28;20115;-90
2021/04/07 05:48:27;;;;;;;15.27;7.03;;;;;;;23.38;14.78;97242.47;5064203;28;20037;-90
2021/04/07 05:50:55;;;;;;;20.85;8.18;;;;;;;23.14;15.05;97250.38;5062966;28;20067;-89
2021/04/07 05:53:21;;;;;;;16.40;6.35;;;;;;;22.80;15.32;97242.59;5050682;28;20480;-89
2021/04/07 05:55:48;;;;;;;16.45;7.45;;;;;;;22.96;15.22;97250.94;5062943;28;20028;-89
2021/04/07 05:58:15;;;;;;;12.82;6.43;;;;;;;22.72;15.76;97260.06;5066761;28;20492;-90
2021/04/07 06:00:42;;;;;;;12.48;5.97;;;;;;;22.96;15.17;97252.94;5048014;28;20032;-90
2021/04/07 06:03:10;;;;;;;10.38;5.25;;;;;;;23.41;15.00;97253.53;5061892;28;20067;-90
2021/04/07 06:05:37;;;;;;;11.27;6.70;;;;;;;23.42;15.07;97260.72;5069435;28;20082;-90
2021/04/07 06:08:04;;;;;;;10.60;7.00;;;;;;;23.37;14.86;97252.88;5072589;28;20031;-89
2021/04/07 06:10:32;;;;;;;15.23;8.73;;;;;;;22.93;15.25;97265.03;5072220;28;20075;-90
2021/04/07 06:12:59;;;;;;;14.30;8.45;;;;;;;22.69;15.42;97270.13;5074933;28;20500;-89
2021/04/07 06:15:26;;;;;;;12.13;7.28;;;;;;;22.57;15.86;97270.84;5091609;28;20539;-90
2021/04/07 06:17:55;;;;;;;11.35;7.22;;;;;;;22.81;15.87;97272.19;5095436;28;20052;-89
2021/04/07 06:20:23;;;;;;;9.85;5.82;;;;;;;23.04;15.74;97271.88;5076449;28;20423;-89
2021/04/07 06:22:50;;;;;;;11.18;6.15;;;;;;;23.22;15.40;97271.34;5077682;28;20404;-89
2021/04/07 06:25:16;;;;;;;11.98;6.57;;;;;;;23.34;15.61;97264.94;5076437;28;20403;-89
2021/04/07 06:27:43;;;;;;;8.85;5.85;;;;;;;23.25;15.21;97268.41;5095530;28;20521;-89
2021/04/07 06:30:10;;;;;;;15.57;6.38;;;;;;;23.28;15.46;97270.34;5093466;28;20047;-89
2021/04/07 06:32:36;;;;;;;11.38;6.35;;;;;;;23.52;15.84;97270.00;5077287;28;20082;-89
2021/04/07 06:35:03;;;;;;;9.35;5.65;;;;;;;23.69;15.35;97269.41;5094346;28;20049;-88
2021/04/07 06:37:29;;;;;;;11.23;6.53;;;;;;;23.64;15.52;97272.78;5084855;28;20036;-88
2021/04/07 06:39:55;;;;;;;14.32;7.00;;;;;;;23.98;15.84;97278.44;5093348;28;20040;-88
2021/04/07 06:42:21;;;;;;;9.27;5.95;;;;;;;24.40;15.16;97279.00;5091955;28;20081;-89
2021/04/07 06:44:47;;;;;;;10.13;5.85;;;;;;;24.66;15.36;97283.28;5094801;28;20024;-88
2021/04/07 06:47:14;;;;;;;12.00;6.10;;;;;;;24.78;15.06;97283.69;5095990;28;20024;-88
2021/04/07 06:49:42;;;;;;;12.23;5.80;;;;;;;24.36;15.09;97281.16;5102115;28;20063;-88
2021/04/07 06:52:16;;;;;;;11.68;6.07;;;;;;;24.48;15.63;97285.16;5098398;28;20111;-89
2021/04/07 06:54:45;;;;;;;13.02;7.50;;;;;;;23.69;15.68;97283.44;5093424;28;20028;-88
2021/04/07 06:57:11;;;;;;;10.75;6.05;;;;;;;23.81;15.83;97290.25;5093110;28;20042;-88
2021/04/07 06:59:37;;;;;;;12.65;6.68;;;;;;;23.61;15.96;97286.94;5093575;28;20043;-89
2021/04/07 07:02:04;;;;;;;12.38;7.13;;;;;;;23.54;16.35;97293.53;5069007;28;20028;-89
2021/04/07 07:04:31;;;;;;;12.45;6.03;;;;;;;22.87;16.75;97301.19;5092851;28;20077;-89
2021/04/07 07:06:57;;;;;;;12.80;7.10;;;;;;;22.62;17.12;97298.31;5092200;28;20059;-89
2021/04/07 07:09:23;;;;;;;11.82;7.57;;;;;;;22.30;17.42;97299.19;5076595;28;20491;-89
2021/04/07 07:11:53;;;;;;;14.82;7.43;;;;;;;22.68;17.09;97305.72;5091571;28;20036;-89
2021/04/07 07:14:20;;;;;;;12.50;6.35;;;;;;;22.24;17.47;97303.72;5081837;28;20076;-88
2021/04/07 07:16:48;;;;;;;11.38;6.68;;;;;;;22.50;17.22;97302.63;5074261;28;20036;-89
2021/04/07 07:19:25;;;;;;;12.27;8.07;;;;;;;21.76;17.56;97310.16;5072996;28;20037;-89
2021/04/07 07:22:02;;;;;;;17.38;7.78;;;;;;;21.46;17.85;97304.91;5074598;28;20190;-89
2021/04/07 07:24:34;;;;;;;17.65;8.35;;;;;;;22.35;17.66;97309.03;5067222;28;20036;-88
2021/04/07 07:27:06;;;;;;;20.17;9.63;;;;;;;21.86;17.35;97314.72;5055361;28;20062;-89
2021/04/07 07:29:35;;;;;;;14.75;8.48;;;;;;;22.47;17.17;97319.50;5049476;28;20032;-88
2021/04/07 07:32:05;;;;;;;18.27;9.95;;;;;;;22.41;17.23;97321.25;5055379;28;20028;-89
2021/04/07 07:34:32;;;;;;;16.97;8.57;;;;;;;21.42;18.02;97320.97;5073515;28;20033;-88
2021/04/07 07:37:01;;;;;;;17.40;9.05;;;;;;;21.37;18.19;97326.25;5070517;28;20639;-88
2021/04/07 07:39:36;;;;;;;15.43;8.30;;;;;;;21.33;18.33;97334.72;5074214;28;20036;-88
2021/04/07 07:42:10;;;;;;;13.10;7.20;;;;;;;20.46;19.45;97333.34;5070663;28;20048;-88
2021/04/07 07:44:39;;;;;;;16.65;8.50;;;;;;;21.62;18.19;97340.44;5055569;28;20052;-88
2021/04/07 07:47:21;;;;;;;17.23;9.43;;;;;;;20.78;18.79;97345.84;5059558;28;20461;-88
2021/04/07 07:49:59;;;;;;;12.63;7.32;;;;;;;21.20;19.10;97337.41;5073970;28;20117;-88
2021/04/07 07:52:30;;;;;;;15.00;8.55;;;;;;;21.65;18.60;97342.34;5070245;28;20492;-88
2021/04/07 07:54:58;;;;;;;13.88;7.63;;;;;;;22.53;18.21;97342.91;5066969;28;20104;-88
2021/04/07 07:57:25;;;;;;;11.80;6.88;;;;;;;22.23;18.49;97352.50;5054609;28;20075;-88
2021/04/07 07:59:56;;;;;;;17.10;9.68;;;;;;;20.56;19.59;97343.47;5057873;28;20052;-88
2021/04/07 08:02:27;;;;;;;12.02;7.70;;;;;;;20.25;20.76;97353.25;5073543;28;20047;-88
2021/04/07 08:04:53;;;;;;;9.00;6.57;;;;;;;18.84;21.44;97349.00;5074325;28;20046;-88
2021/04/07 08:07:20;;;;;;;12.45;7.60;;;;;;;17.72;23.25;97355.28;5072847;28;20112;-88
2021/04/07 08:09:46;;;;;;;11.00;7.05;;;;;;;17.81;23.41;97354.81;5073183;28;20058;-87
2021/04/07 08:12:16;;;;;;;11.40;6.95;;;;;;;18.77;22.45;97351.84;5071779;28;20060;-87
2021/04/07 08:14:46;;;;;;;12.80;7.15;;;;;;;19.60;21.49;97340.00;5064208;28;20041;-87
2021/04/07 08:17:13;;;;;;;10.55;6.30;;;;;;;20.24;20.57;97342.50;5059403;28;20032;-87
2021/04/07 08:19:41;;;;;;;9.70;6.65;;;;;;;19.05;21.38;97357.06;5072468;28;20123;-87
2021/04/07 08:22:11;;;;;;;12.40;7.90;;;;;;;18.91;21.31;97357.25;5073010;28;20032;-87
2021/04/07 08:24:38;;;;;;;9.18;6.30;;;;;;;19.77;20.48;97344.47;5073689;28;20028;-87
2021/04/07 08:27:06;;;;;;;21.65;9.02;;;;;;;20.28;20.56;97355.16;5071123;28;20403;-87
2021/04/07 08:29:33;;;;;;;11.82;7.63;;;;;;;18.23;21.55;97364.72;5071737;28;20051;-87
2021/04/07 08:31:59;;;;;;;8.13;6.68;;;;;;;17.66;22.42;97362.47;5061570;28;20459;-87
2021/04/07 08:34:25;;;;;;;13.43;6.45;;;;;;;20.21;20.26;97358.06;5060439;28;20384;-87
2021/04/07 08:36:51;;;;;;;13.93;7.40;;;;;;;19.17;20.34;97351.72;5073141;28;20105;-86
2021/04/07 08:39:18;;;;;;;8.73;5.95;;;;;;;20.85;19.97;97354.06;5073642;28;20081;-86
2021/04/07 08:41:46;;;;;;;9.63;5.90;;;;;;;19.45;20.92;97366.47;5070302;28;20044;-86
2021/04/07 08:44:12;;;;;;;9.45;6.05;;;;;;;20.02;21.20;97378.31;5072306;28;20040;-86
2021/04/07 08:46:45;;;;;;;8.82;6.03;;;;;;;17.77;21.84;97370.72;5070099;28;20025;-87
2021/04/07 08:49:39;;;;;;;9.38;5.55;;;;;;;19.42;21.08;97368.09;5059858;28;20028;-87
2021/04/07 08:52:20;;;;;;;17.40;6.68;;;;;;;21.32;18.19;97364.66;5060355;28;20029;-86
2021/04/07 08:54:47;;;;;;;;;;;;;;;21.30;17.84;97357.94;5056000;28;20032;-86
2021/04/07 08:57:34;;;;;;;6.18;3.72;;;;;;;20.02;20.10;97367.16;5068295;28;19920;-86
2021/04/07 09:00:19;;;;;;;8.32;4.63;;;;;;;21.20;18.21;97372.91;5072615;28;20032;-86
2021/04/07 09:02:49;;;;;;;10.57;5.25;;;;;;;19.03;21.18;97376.97;5072991;28;20055;-86
2021/04/07 09:05:16;;;;;;;12.38;6.00;;;;;;;20.40;20.00;97362.91;5072840;28;20033;-87
2021/04/07 09:07:46;;;;;;;6.65;4.55;;;;;;;20.56;20.37;97360.22;5072177;28;20040;-86
2021/04/07 09:10:18;;;;;;;7.68;4.57;;;;;;;20.11;18.90;97363.81;5072967;28;20058;-87
2021/04/07 09:12:46;;;;;;;6.70;4.32;;;;;;;22.35;16.81;97351.00;5074163;28;20029;-86
2021/04/07 09:15:27;;;;;;;12.38;5.90;;;;;;;22.29;16.33;97352.75;5085992;28;20086;-87
2021/04/07 09:17:56;;;;;;;6.40;4.20;;;;;;;19.84;18.18;97370.22;5088416;28;20036;-87
2021/04/07 09:20:40;;;;;;;5.60;3.90;;;;;;;19.26;18.48;97374.25;5072259;28;20545;-87
2021/04/07 09:23:29;;;;;;;7.97;4.25;;;;;;;19.42;19.00;97378.47;5059865;28;20426;-87
2021/04/07 09:26:10;;;;;;;5.50;3.25;;;;;;;21.88;16.63;97364.56;5085451;28;20040;-86
2021/04/07 09:28:40;;;;;;;7.78;3.92;;;;;;;22.25;16.37;97366.03;5074620;28;20128;-87
2021/04/07 09:31:08;;;;;;;9.80;4.90;;;;;;;20.07;17.77;97369.44;5093173;28;20082;-87
2021/04/07 09:33:37;;;;;;;6.68;3.58;;;;;;;20.79;17.17;97376.13;5092829;28;20024;-87
2021/04/07 09:36:04;;;;;;;8.40;4.15;;;;;;;21.39;17.04;97363.72;5071874;28;20028;-87
2021/04/07 09:38:30;;;;;;;6.00;4.07;;;;;;;20.58;17.70;97379.31;5081909;28;20090;-87
2021/04/07 09:41:29;;;;;;;6.22;4.35;;;;;;;20.10;17.15;97367.81;5093242;28;20473;-87
2021/04/07 09:43:57;;;;;;;8.60;4.97;;;;;;;19.38;18.50;97363.78;5069513;28;20132;-88
2021/04/07 09:46:23;;;;;;;7.28;4.30;;;;;;;19.91;18.54;97367.34;5066638;28;20028;-87
2021/04/07 09:48:54;;;;;;;8.20;4.10;;;;;;;20.26;19.07;97367.94;5076618;28;20403;-87
2021/04/07 09:51:20;;;;;;;4.90;3.50;;;;;;;20.60;18.03;97358.16;5080346;28;20111;-87
2021/04/07 09:53:46;;;;;;;5.85;3.85;;;;;;;21.05;17.75;97366.81;5091010;28;20105;-87
2021/04/07 09:56:12;;;;;;;4.75;2.95;;;;;;;21.16;18.34;97356.25;5078417;28;20020;-87
2021/04/07 09:58:47;;;;;;;6.10;3.30;;;;;;;22.34;16.03;97347.41;5096079;28;20028;-87
2021/04/07 10:01:15;;;;;;;5.28;3.63;;;;;;;19.92;17.89;97360.56;5091086;28;20102;-87
2021/04/07 10:03:55;;;;;;;5.97;3.30;;;;;;;19.50;18.54;97358.44;5078195;28;20028;-87
2021/04/07 10:06:23;;;;;;;5.82;3.30;;;;;;;20.94;17.37;97357.88;5097076;28;20046;-87
2021/04/07 10:09:04;;;;;;;6.47;3.63;;;;;;;19.32;17.88;97343.97;5096322;28;20039;-88
2021/04/07 10:11:35;;;;;;;6.10;3.70;;;;;;;20.19;18.47;97359.69;5095892;28;20475;-88
2021/04/07 10:14:01;;;;;;;6.13;3.20;;;;;;;18.60;19.72;97375.88;5096140;28;20038;-88
2021/04/07 10:16:35;;;;;;;8.77;3.88;;;;;;;17.19;22.71;97411.09;5076704;28;20059;-87
2021/04/07 10:19:06;;;;;;;8.18;3.47;;;;;;;15.18;26.36;97419.56;5089629;28;20028;-88
2021/04/07 10:21:32;;;;;;;5.93;3.25;;;;;;;14.77;26.02;97423.72;5092533;28;20034;-87
2021/04/07 10:24:00;;;;;;;3.30;2.30;;;;;;;16.57;23.06;97404.59;5096372;28;20035;-87
2021/04/07 10:26:26;;;;;;;5.40;2.30;;;;;;;17.11;21.57;97387.38;5096105;28;20055;-87
2021/04/07 10:29:00;;;;;;;3.33;2.20;;;;;;;18.23;20.09;97379.41;5096188;28;20028;-85
2021/04/07 10:31:27;;;;;;;2.95;1.77;;;;;;;18.96;19.51;97382.63;5077649;28;20476;-88
2021/04/07 10:34:07;;;;;;;3.03;1.88;;;;;;;20.78;18.66;97376.53;5093427;28;20070;-86
2021/04/07 10:36:37;;;;;;;2.78;1.55;;;;;;;21.19;17.15;97383.28;5088348;28;20016;-88
2021/04/07 10:39:17;;;;;;;1.58;1.20;;;;;;;20.59;17.55;97364.16;5076647;28;20119;-87
2021/04/07 10:41:48;;;;;;;2.70;1.88;;;;;;;20.39;17.49;97377.28;5095345;28;20028;-89
2021/04/07 10:44:25;;;;;;;4.53;2.63;;;;;;;17.58;21.57;97369.25;5086593;28;20059;-88
2021/04/07 10:46:51;;;;;;;7.47;2.95;;;;;;;18.44;19.58;97372.84;5091182;28;20102;-90
2021/04/07 10:49:18;;;;;;;4.53;2.60;;;;;;;18.67;20.00;97375.03;5092337;28;20119;-85
2021/04/07 10:51:45;;;;;;;4.93;3.08;;;;;;;20.28;19.32;97376.72;5082493;28;20032;-86
2021/04/07 10:54:11;;;;;;;5.75;2.75;;;;;;;21.18;17.49;97378.94;5092942;28;20423;-86
2021/04/07 10:56:38;;;;;;;7.70;3.42;;;;;;;20.49;17.60;97379.88;5084486;28;20050;-87
2021/04/07 10:59:12;;;;;;;5.88;3.13;;;;;;;20.79;17.88;97378.13;5092590;28;20085;-88
2021/04/07 11:01:39;;;;;;;7.95;4.20;;;;;;;21.18;17.43;97376.13;5090778;28;20056;-87
2021/04/07 11:04:19;;;;;;;6.55;3.58;;;;;;;22.03;16.64;97369.38;5062743;28;20115;-88
2021/04/07 11:06:50;;;;;;;7.57;3.72;;;;;;;22.39;15.80;97362.88;5094329;28;20044;-88
2021/04/07 11:09:16;;;;;;;;;;;;;;;20.84;16.79;97377.63;5077464;28;20036;-89
2021/04/07 11:11:43;;;;;;;4.88;4.20;;;;;;;21.05;17.82;97391.94;5095974;28;19920;-89
2021/04/07 11:14:11;;;;;;;3.60;2.67;;;;;;;21.56;17.03;97387.66;5076672;28;20044;-89
2021/04/07 11:16:38;;;;;;;5.00;2.97;;;;;;;22.75;16.24;97385.91;5095037;28;20057;-88
2021/04/07 11:19:15;;;;;;;3.67;2.30;;;;;;;23.09;15.83;97385.34;5095344;28;20361;-88
2021/04/07 11:21:42;;;;;;;4.72;2.47;;;;;;;24.07;15.06;97375.94;5088189;28;20029;-87
2021/04/07 11:24:09;;;;;;;3.03;2.40;;;;;;;23.64;14.93;97395.34;5094548;28;20067;-89
2021/04/07 11:26:35;;;;;;;5.00;2.35;;;;;;;24.21;15.07;97381.06;5092286;28;20036;-89
2021/04/07 11:29:01;;;;;;;3.78;2.33;;;;;;;24.12;14.99;97386.59;5078943;28;20059;-89
2021/04/07 11:31:32;;;;;;;2.88;2.10;;;;;;;23.14;15.94;97376.41;5086633;28;20028;-88
2021/04/07 11:34:07;;;;;;;4.10;2.30;;;;;;;23.80;16.28;97381.22;5098716;28;20025;-88
2021/04/07 11:46:33;;;;;;;5.93;3.40;;;;;;;16.78;23.54;97432.25;5076254;28;20407;-89
2021/04/07 11:48:59;;;;;;;5.82;3.65;;;;;;;15.55;26.14;97444.16;5087814;28;20043;-90